sensor_id;sensor_type;location;lat;lon;timestamp;pressure;altitude;pressure_sealevel;temperature;humidity
11041;BME280;5573;49.592;8.662;2023-05-22T00:02:16;99447.63;;;14.78;80.66
11041;BME280;5573;49.592;8.662;2023-05-22T00:04:45;99451.09;;;14.74;80.70
11041;BME280;5573;49.592;8.662;2023-05-22T00:07:13;99448.31;;;14.69;81.20
11041;BME280;5573;49.592;8.662;2023-05-22T00:09:42;99446.63;;;14.63;81.49
11041;BME280;5573;49.592;8.662;2023-05-22T00:12:10;99442.81;;;14.59;81.68
11041;BME280;5573;49.592;8.662;2023-05-22T00:14:38;99440.38;;;14.57;81.69
11041;BME280;5573;49.592;8.662;2023-05-22T00:17:06;99435.31;;;14.61;81.76
11041;BME280;5573;49.592;8.662;2023-05-22T00:19:36;99439.63;;;14.62;81.83
11041;BME280;5573;49.592;8.662;2023-05-22T00:22:04;99446.88;;;14.61;81.91
11041;BME280;5573;49.592;8.662;2023-05-22T00:24:32;99441.69;;;14.54;81.99
11041;BME280;5573;49.592;8.662;2023-05-22T00:27:01;99441.38;;;14.51;82.46
11041;BME280;5573;49.592;8.662;2023-05-22T00:29:29;99437.59;;;14.52;82.13
11041;BME280;5573;49.592;8.662;2023-05-22T00:31:58;99439.28;;;14.75;80.42
11041;BME280;5573;49.592;8.662;2023-05-22T00:34:25;99435.13;;;14.84;80.11
11041;BME280;5573;49.592;8.662;2023-05-22T00:36:54;99437.41;;;14.75;80.62
11041;BME280;5573;49.592;8.662;2023-05-22T00:39:22;99439.22;;;14.70;80.99
11041;BME280;5573;49.592;8.662;2023-05-22T00:41:49;99435.66;;;14.64;81.38
11041;BME280;5573;49.592;8.662;2023-05-22T00:44:19;99434.38;;;14.50;82.21
11041;BME280;5573;49.592;8.662;2023-05-22T00:46:47;99435.81;;;14.57;81.41
11041;BME280;5573;49.592;8.662;2023-05-22T00:49:15;99437.91;;;14.55;81.23
11041;BME280;5573;49.592;8.662;2023-05-22T00:51:43;99442.00;;;14.58;81.67
11041;BME280;5573;49.592;8.662;2023-05-22T00:54:11;99442.50;;;14.55;81.80
11041;BME280;5573;49.592;8.662;2023-05-22T00:56:40;99445.00;;;14.62;81.35
11041;BME280;5573;49.592;8.662;2023-05-22T00:59:09;99440.28;;;14.52;81.88
11041;BME280;5573;49.592;8.662;2023-05-22T01:01:38;99434.06;;;14.46;81.84
11041;BME280;5573;49.592;8.662;2023-05-22T01:04:09;99428.38;;;14.43;82.65
11041;BME280;5573;49.592;8.662;2023-05-22T01:06:38;99427.78;;;14.41;82.57
11041;BME280;5573;49.592;8.662;2023-05-22T01:09:07;99427.56;;;14.42;83.25
11041;BME280;5573;49.592;8.662;2023-05-22T01:11:39;99426.25;;;14.45;82.90
11041;BME280;5573;49.592;8.662;2023-05-22T01:14:13;99429.59;;;14.35;83.41
11041;BME280;5573;49.592;8.662;2023-05-22T01:16:51;99433.69;;;14.26;83.67
11041;BME280;5573;49.592;8.662;2023-05-22T01:19:39;99428.41;;;14.31;83.46
11041;BME280;5573;49.592;8.662;2023-05-22T01:22:25;99426.22;;;14.28;83.80
11041;BME280;5573;49.592;8.662;2023-05-22T01:25:12;99420.38;;;14.31;83.46
11041;BME280;5573;49.592;8.662;2023-05-22T01:27:59;99428.41;;;14.31;83.35
11041;BME280;5573;49.592;8.662;2023-05-22T01:30:42;99425.09;;;14.24;83.12
11041;BME280;5573;49.592;8.662;2023-05-22T01:33:14;99429.31;;;14.20;83.04
11041;BME280;5573;49.592;8.662;2023-05-22T01:35:47;99431.41;;;14.18;83.43
11041;BME280;5573;49.592;8.662;2023-05-22T01:38:19;99434.19;;;14.23;82.96
11041;BME280;5573;49.592;8.662;2023-05-22T01:40:48;99436.31;;;14.21;83.46
11041;BME280;5573;49.592;8.662;2023-05-22T01:43:16;99434.75;;;14.25;83.27
11041;BME280;5573;49.592;8.662;2023-05-22T01:45:46;99438.56;;;14.29;82.84
11041;BME280;5573;49.592;8.662;2023-05-22T01:48:15;99445.00;;;14.28;82.69
11041;BME280;5573;49.592;8.662;2023-05-22T01:50:46;99438.44;;;14.36;82.24
11041;BME280;5573;49.592;8.662;2023-05-22T01:53:21;99445.72;;;14.40;81.83
11041;BME280;5573;49.592;8.662;2023-05-22T01:55:56;99444.13;;;14.39;82.21
11041;BME280;5573;49.592;8.662;2023-05-22T01:58:30;99441.34;;;14.34;82.23
11041;BME280;5573;49.592;8.662;2023-05-22T02:01:02;99447.66;;;14.28;82.40
11041;BME280;5573;49.592;8.662;2023-05-22T02:03:32;99447.72;;;14.33;82.74
11041;BME280;5573;49.592;8.662;2023-05-22T02:06:05;99451.59;;;14.37;81.87
11041;BME280;5573;49.592;8.662;2023-05-22T02:08:34;99446.75;;;14.23;83.34
11041;BME280;5573;49.592;8.662;2023-05-22T02:11:04;99446.84;;;14.11;83.20
11041;BME280;5573;49.592;8.662;2023-05-22T02:13:33;99451.03;;;14.07;83.50
11041;BME280;5573;49.592;8.662;2023-05-22T02:16:03;99450.41;;;14.00;83.84
11041;BME280;5573;49.592;8.662;2023-05-22T02:18:31;99453.06;;;14.00;83.93
11041;BME280;5573;49.592;8.662;2023-05-22T02:20:59;99447.38;;;13.96;84.31
11041;BME280;5573;49.592;8.662;2023-05-22T02:23:30;99449.34;;;14.01;83.77
11041;BME280;5573;49.592;8.662;2023-05-22T02:25:59;99451.63;;;14.09;83.16
11041;BME280;5573;49.592;8.662;2023-05-22T02:28:27;99454.31;;;14.09;82.93
11041;BME280;5573;49.592;8.662;2023-05-22T02:30:55;99452.94;;;14.06;83.63
11041;BME280;5573;49.592;8.662;2023-05-22T02:33:24;99447.47;;;14.01;83.93
11041;BME280;5573;49.592;8.662;2023-05-22T02:35:52;99449.94;;;14.03;83.65
11041;BME280;5573;49.592;8.662;2023-05-22T02:38:22;99445.03;;;14.00;82.95
11041;BME280;5573;49.592;8.662;2023-05-22T02:40:50;99449.84;;;13.98;83.83
11041;BME280;5573;49.592;8.662;2023-05-22T02:43:19;99447.16;;;13.98;83.68
11041;BME280;5573;49.592;8.662;2023-05-22T02:45:47;99446.25;;;13.92;83.63
11041;BME280;5573;49.592;8.662;2023-05-22T02:48:16;99454.38;;;13.97;84.04
11041;BME280;5573;49.592;8.662;2023-05-22T02:50:45;99448.03;;;13.87;83.94
11041;BME280;5573;49.592;8.662;2023-05-22T02:53:14;99448.31;;;13.74;84.13
11041;BME280;5573;49.592;8.662;2023-05-22T02:55:42;99454.25;;;13.76;84.25
11041;BME280;5573;49.592;8.662;2023-05-22T02:58:11;99453.66;;;13.74;84.52
11041;BME280;5573;49.592;8.662;2023-05-22T03:00:40;99457.31;;;13.68;84.86
11041;BME280;5573;49.592;8.662;2023-05-22T03:03:09;99456.66;;;13.60;85.01
11041;BME280;5573;49.592;8.662;2023-05-22T03:05:37;99459.69;;;13.52;85.09
11041;BME280;5573;49.592;8.662;2023-05-22T03:08:07;99460.75;;;13.51;85.88
11041;BME280;5573;49.592;8.662;2023-05-22T03:10:35;99469.50;;;13.47;85.73
11041;BME280;5573;49.592;8.662;2023-05-22T03:13:04;99456.47;;;13.50;85.83
11041;BME280;5573;49.592;8.662;2023-05-22T03:15:31;99460.84;;;13.56;86.20
11041;BME280;5573;49.592;8.662;2023-05-22T03:18:08;99461.56;;;13.52;86.08
11041;BME280;5573;49.592;8.662;2023-05-22T03:20:37;99472.97;;;13.47;86.17
11041;BME280;5573;49.592;8.662;2023-05-22T03:23:05;99474.75;;;13.42;85.93
11041;BME280;5573;49.592;8.662;2023-05-22T03:25:35;99468.25;;;13.38;85.97
11041;BME280;5573;49.592;8.662;2023-05-22T03:28:03;99466.88;;;13.35;86.08
11041;BME280;5573;49.592;8.662;2023-05-22T03:30:35;99468.94;;;13.33;86.18
11041;BME280;5573;49.592;8.662;2023-05-22T03:33:13;99479.41;;;13.35;86.20
11041;BME280;5573;49.592;8.662;2023-05-22T03:35:42;99485.09;;;13.38;85.87
11041;BME280;5573;49.592;8.662;2023-05-22T03:38:10;99475.94;;;13.34;86.02
11041;BME280;5573;49.592;8.662;2023-05-22T03:40:40;99485.25;;;13.32;86.00
11041;BME280;5573;49.592;8.662;2023-05-22T03:43:08;99491.63;;;13.31;86.03
11041;BME280;5573;49.592;8.662;2023-05-22T03:45:37;99488.94;;;13.42;85.79
11041;BME280;5573;49.592;8.662;2023-05-22T03:48:05;99480.91;;;13.42;86.04
11041;BME280;5573;49.592;8.662;2023-05-22T03:50:33;99478.47;;;13.41;85.83
11041;BME280;5573;49.592;8.662;2023-05-22T03:53:01;99480.91;;;13.42;86.03
11041;BME280;5573;49.592;8.662;2023-05-22T03:55:29;99487.97;;;13.48;86.10
11041;BME280;5573;49.592;8.662;2023-05-22T03:57:59;99486.19;;;13.66;85.62
11041;BME280;5573;49.592;8.662;2023-05-22T04:00:26;99487.63;;;13.56;85.95
11041;BME280;5573;49.592;8.662;2023-05-22T04:02:54;99484.13;;;13.56;86.38
11041;BME280;5573;49.592;8.662;2023-05-22T04:05:24;99496.91;;;13.66;86.24
11041;BME280;5573;49.592;8.662;2023-05-22T04:07:52;99482.31;;;13.73;86.50
11041;BME280;5573;49.592;8.662;2023-05-22T04:10:20;99492.78;;;13.75;86.49
11041;BME280;5573;49.592;8.662;2023-05-22T04:12:49;99497.91;;;13.76;86.61
11041;BME280;5573;49.592;8.662;2023-05-22T04:15:18;99495.06;;;13.83;86.72
11041;BME280;5573;49.592;8.662;2023-05-22T04:17:47;99497.38;;;13.91;86.12
11041;BME280;5573;49.592;8.662;2023-05-22T04:20:15;99497.59;;;13.89;86.56
11041;BME280;5573;49.592;8.662;2023-05-22T04:22:43;99501.16;;;14.06;85.88
11041;BME280;5573;49.592;8.662;2023-05-22T04:25:12;99503.41;;;13.98;86.12
11041;BME280;5573;49.592;8.662;2023-05-22T04:27:39;99498.16;;;14.03;86.34
11041;BME280;5573;49.592;8.662;2023-05-22T04:30:08;99505.34;;;14.02;86.52
11041;BME280;5573;49.592;8.662;2023-05-22T04:32:39;99514.06;;;14.09;87.12
11041;BME280;5573;49.592;8.662;2023-05-22T04:35:07;99509.84;;;14.14;86.84
11041;BME280;5573;49.592;8.662;2023-05-22T04:37:37;99511.97;;;14.28;86.28
11041;BME280;5573;49.592;8.662;2023-05-22T04:40:07;99520.34;;;14.32;86.46
11041;BME280;5573;49.592;8.662;2023-05-22T04:42:36;99510.72;;;14.47;86.19
11041;BME280;5573;49.592;8.662;2023-05-22T04:45:04;99516.88;;;14.48;86.08
11041;BME280;5573;49.592;8.662;2023-05-22T04:47:32;99517.78;;;14.53;86.34
11041;BME280;5573;49.592;8.662;2023-05-22T04:50:06;99513.78;;;14.56;86.20
11041;BME280;5573;49.592;8.662;2023-05-22T04:52:34;99513.97;;;14.66;85.53
11041;BME280;5573;49.592;8.662;2023-05-22T04:55:03;99510.84;;;14.74;85.12
11041;BME280;5573;49.592;8.662;2023-05-22T04:57:32;99515.75;;;14.77;84.61
11041;BME280;5573;49.592;8.662;2023-05-22T05:00:00;99519.00;;;14.79;84.79
11041;BME280;5573;49.592;8.662;2023-05-22T05:02:31;99509.22;;;14.90;84.36
11041;BME280;5573;49.592;8.662;2023-05-22T05:04:59;99518.81;;;15.02;84.59
11041;BME280;5573;49.592;8.662;2023-05-22T05:07:29;99521.84;;;15.11;84.73
11041;BME280;5573;49.592;8.662;2023-05-22T05:09:56;99512.34;;;15.20;84.77
11041;BME280;5573;49.592;8.662;2023-05-22T05:12:25;99521.84;;;15.28;84.56
11041;BME280;5573;49.592;8.662;2023-05-22T05:14:53;99523.91;;;15.42;84.00
11041;BME280;5573;49.592;8.662;2023-05-22T05:17:21;99512.63;;;15.62;83.86
11041;BME280;5573;49.592;8.662;2023-05-22T05:19:49;99518.56;;;15.64;83.85
11041;BME280;5573;49.592;8.662;2023-05-22T05:22:17;99512.94;;;15.66;83.67
11041;BME280;5573;49.592;8.662;2023-05-22T05:24:47;99515.44;;;15.72;83.16
11041;BME280;5573;49.592;8.662;2023-05-22T05:27:15;99512.84;;;15.82;83.32
11041;BME280;5573;49.592;8.662;2023-05-22T05:29:43;99516.53;;;15.98;83.11
11041;BME280;5573;49.592;8.662;2023-05-22T05:32:22;99520.91;;;16.04;82.20
11041;BME280;5573;49.592;8.662;2023-05-22T05:35:00;99513.59;;;16.26;82.10
11041;BME280;5573;49.592;8.662;2023-05-22T05:37:42;99518.78;;;16.38;82.41
11041;BME280;5573;49.592;8.662;2023-05-22T05:40:12;99516.50;;;16.52;82.06
11041;BME280;5573;49.592;8.662;2023-05-22T05:42:46;99528.16;;;16.62;81.36
11041;BME280;5573;49.592;8.662;2023-05-22T05:45:16;99524.53;;;16.78;81.23
11041;BME280;5573;49.592;8.662;2023-05-22T05:47:45;99519.81;;;16.95;80.55
11041;BME280;5573;49.592;8.662;2023-05-22T05:50:13;99529.81;;;17.05;78.33
11041;BME280;5573;49.592;8.662;2023-05-22T05:52:41;99533.44;;;17.26;76.51
11041;BME280;5573;49.592;8.662;2023-05-22T05:55:15;99542.97;;;17.43;77.70
11041;BME280;5573;49.592;8.662;2023-05-22T05:57:43;99523.09;;;17.55;76.68
11041;BME280;5573;49.592;8.662;2023-05-22T06:00:18;99539.41;;;17.85;74.41
11041;BME280;5573;49.592;8.662;2023-05-22T06:02:46;99542.09;;;17.95;72.66
11041;BME280;5573;49.592;8.662;2023-05-22T06:05:35;99543.75;;;18.06;72.35
11041;BME280;5573;49.592;8.662;2023-05-22T06:08:25;99545.16;;;18.19;72.12
11041;BME280;5573;49.592;8.662;2023-05-22T06:10:55;99539.25;;;18.37;70.13
11041;BME280;5573;49.592;8.662;2023-05-22T06:13:36;99542.22;;;18.46;69.36
11041;BME280;5573;49.592;8.662;2023-05-22T06:16:04;99544.69;;;18.52;69.91
11041;BME280;5573;49.592;8.662;2023-05-22T06:18:33;99554.13;;;18.60;70.11
11041;BME280;5573;49.592;8.662;2023-05-22T06:21:01;99547.09;;;18.69;68.92
11041;BME280;5573;49.592;8.662;2023-05-22T06:23:30;99543.59;;;18.88;68.02
11041;BME280;5573;49.592;8.662;2023-05-22T06:25:59;99552.47;;;18.99;67.79
11041;BME280;5573;49.592;8.662;2023-05-22T06:28:27;99543.31;;;19.00;68.35
11041;BME280;5573;49.592;8.662;2023-05-22T06:30:56;99543.28;;;19.10;68.80
11041;BME280;5573;49.592;8.662;2023-05-22T06:33:26;99545.41;;;19.28;68.04
11041;BME280;5573;49.592;8.662;2023-05-22T06:35:54;99547.00;;;19.45;68.10
11041;BME280;5573;49.592;8.662;2023-05-22T06:38:22;99542.94;;;19.47;68.19
11041;BME280;5573;49.592;8.662;2023-05-22T06:40:50;99552.88;;;19.67;66.74
11041;BME280;5573;49.592;8.662;2023-05-22T06:43:22;99544.78;;;19.62;66.94
11041;BME280;5573;49.592;8.662;2023-05-22T06:45:59;99544.78;;;19.67;67.41
11041;BME280;5573;49.592;8.662;2023-05-22T06:48:48;99542.81;;;19.82;67.17
11041;BME280;5573;49.592;8.662;2023-05-22T06:51:23;99542.69;;;20.08;65.23
11041;BME280;5573;49.592;8.662;2023-05-22T06:53:57;99537.59;;;20.45;63.38
11041;BME280;5573;49.592;8.662;2023-05-22T06:56:29;99551.63;;;20.81;61.29
11041;BME280;5573;49.592;8.662;2023-05-22T06:59:09;99561.00;;;21.51;59.16
11041;BME280;5573;49.592;8.662;2023-05-22T07:01:56;99567.25;;;22.37;56.35
11041;BME280;5573;49.592;8.662;2023-05-22T07:04:40;99558.09;;;22.84;54.33
11041;BME280;5573;49.592;8.662;2023-05-22T07:07:16;99566.00;;;23.58;52.70
11041;BME280;5573;49.592;8.662;2023-05-22T07:09:44;99557.75;;;23.77;51.76
11041;BME280;5573;49.592;8.662;2023-05-22T07:12:12;99562.78;;;23.43;52.46
11041;BME280;5573;49.592;8.662;2023-05-22T07:14:41;99566.00;;;23.45;51.58
11041;BME280;5573;49.592;8.662;2023-05-22T07:17:09;99570.50;;;23.90;50.92
11041;BME280;5573;49.592;8.662;2023-05-22T07:19:41;99571.50;;;24.22;50.19
11041;BME280;5573;49.592;8.662;2023-05-22T07:22:09;99575.63;;;23.37;52.70
11041;BME280;5573;49.592;8.662;2023-05-22T07:24:38;99574.81;;;24.05;49.76
11041;BME280;5573;49.592;8.662;2023-05-22T07:27:07;99582.72;;;24.78;48.85
11041;BME280;5573;49.592;8.662;2023-05-22T07:29:37;99581.38;;;24.18;49.33
11041;BME280;5573;49.592;8.662;2023-05-22T07:32:08;99577.97;;;23.85;50.52
11041;BME280;5573;49.592;8.662;2023-05-22T07:34:36;99580.81;;;23.66;51.00
11041;BME280;5573;49.592;8.662;2023-05-22T07:37:07;99582.50;;;24.17;50.72
11041;BME280;5573;49.592;8.662;2023-05-22T07:39:35;99582.50;;;24.17;51.59
11041;BME280;5573;49.592;8.662;2023-05-22T07:42:05;99584.78;;;24.23;50.75
11041;BME280;5573;49.592;8.662;2023-05-22T07:44:39;99579.72;;;24.44;51.58
11041;BME280;5573;49.592;8.662;2023-05-22T07:47:09;99580.66;;;24.26;51.57
11041;BME280;5573;49.592;8.662;2023-05-22T07:49:37;99590.72;;;24.83;50.92
11041;BME280;5573;49.592;8.662;2023-05-22T07:52:06;99579.25;;;24.01;52.63
11041;BME280;5573;49.592;8.662;2023-05-22T07:54:33;99589.25;;;24.77;49.69
11041;BME280;5573;49.592;8.662;2023-05-22T07:57:05;99587.91;;;25.41;46.98
11041;BME280;5573;49.592;8.662;2023-05-22T07:59:37;99587.03;;;25.01;48.40
11041;BME280;5573;49.592;8.662;2023-05-22T08:02:05;99585.63;;;25.35;47.12
11041;BME280;5573;49.592;8.662;2023-05-22T08:04:35;99587.06;;;25.63;45.36
11041;BME280;5573;49.592;8.662;2023-05-22T08:07:03;99594.94;;;25.34;46.30
11041;BME280;5573;49.592;8.662;2023-05-22T08:09:31;99586.81;;;25.20;48.17
11041;BME280;5573;49.592;8.662;2023-05-22T08:11:59;99587.38;;;25.53;45.28
11041;BME280;5573;49.592;8.662;2023-05-22T08:14:27;99588.66;;;25.02;47.96
11041;BME280;5573;49.592;8.662;2023-05-22T08:16:55;99584.91;;;25.21;48.53
11041;BME280;5573;49.592;8.662;2023-05-22T08:19:24;99592.72;;;24.69;49.16
11041;BME280;5573;49.592;8.662;2023-05-22T08:21:54;99590.00;;;25.14;47.78
11041;BME280;5573;49.592;8.662;2023-05-22T08:24:24;99580.69;;;24.84;48.81
11041;BME280;5573;49.592;8.662;2023-05-22T08:26:55;99567.84;;;24.62;48.88
11041;BME280;5573;49.592;8.662;2023-05-22T08:29:24;99590.88;;;24.56;50.53
11041;BME280;5573;49.592;8.662;2023-05-22T08:31:52;99595.00;;;24.53;49.80
11041;BME280;5573;49.592;8.662;2023-05-22T08:34:22;99592.31;;;24.40;50.51
11041;BME280;5573;49.592;8.662;2023-05-22T08:36:50;99598.06;;;24.74;49.22
11041;BME280;5573;49.592;8.662;2023-05-22T08:39:19;99583.31;;;24.75;49.36
11041;BME280;5573;49.592;8.662;2023-05-22T08:41:48;99590.72;;;24.83;49.24
11041;BME280;5573;49.592;8.662;2023-05-22T08:44:15;99594.81;;;24.86;48.58
11041;BME280;5573;49.592;8.662;2023-05-22T08:46:45;99592.75;;;24.91;49.61
11041;BME280;5573;49.592;8.662;2023-05-22T08:49:22;99586.44;;;25.35;45.75
11041;BME280;5573;49.592;8.662;2023-05-22T08:51:54;99590.16;;;25.08;46.83
11041;BME280;5573;49.592;8.662;2023-05-22T08:54:25;99586.81;;;24.89;48.82
11041;BME280;5573;49.592;8.662;2023-05-22T08:56:53;99537.03;;;24.97;48.16
11041;BME280;5573;49.592;8.662;2023-05-22T08:59:23;99577.44;;;25.35;46.03
11041;BME280;5573;49.592;8.662;2023-05-22T09:01:51;99563.66;;;25.00;48.87
11041;BME280;5573;49.592;8.662;2023-05-22T09:04:20;99572.75;;;25.57;45.54
11041;BME280;5573;49.592;8.662;2023-05-22T09:06:50;99578.41;;;25.39;45.75
11041;BME280;5573;49.592;8.662;2023-05-22T09:09:17;99575.09;;;25.42;44.63
11041;BME280;5573;49.592;8.662;2023-05-22T09:11:46;99579.75;;;25.41;43.69
11041;BME280;5573;49.592;8.662;2023-05-22T09:14:14;99576.56;;;25.48;45.93
11041;BME280;5573;49.592;8.662;2023-05-22T09:16:43;99575.69;;;25.30;44.56
11041;BME280;5573;49.592;8.662;2023-05-22T09:19:12;99567.94;;;25.54;46.78
11041;BME280;5573;49.592;8.662;2023-05-22T09:21:40;99571.03;;;25.31;44.77
11041;BME280;5573;49.592;8.662;2023-05-22T09:24:10;99570.28;;;25.78;44.71
11041;BME280;5573;49.592;8.662;2023-05-22T09:26:38;99573.63;;;25.75;45.36
11041;BME280;5573;49.592;8.662;2023-05-22T09:29:08;99560.31;;;25.43;46.14
11041;BME280;5573;49.592;8.662;2023-05-22T09:31:42;99562.75;;;25.92;46.35
11041;BME280;5573;49.592;8.662;2023-05-22T09:34:12;99567.00;;;25.59;46.28
11041;BME280;5573;49.592;8.662;2023-05-22T09:36:41;99560.88;;;25.53;45.77
11041;BME280;5573;49.592;8.662;2023-05-22T09:39:09;99567.47;;;25.61;46.98
11041;BME280;5573;49.592;8.662;2023-05-22T09:41:38;99579.75;;;25.81;47.15
11041;BME280;5573;49.592;8.662;2023-05-22T09:44:12;99577.50;;;25.83;46.32
11041;BME280;5573;49.592;8.662;2023-05-22T09:46:41;99526.81;;;25.51;46.87
11041;BME280;5573;49.592;8.662;2023-05-22T09:49:11;99573.38;;;25.94;47.16
11041;BME280;5573;49.592;8.662;2023-05-22T09:51:44;99550.59;;;26.16;46.45
11041;BME280;5573;49.592;8.662;2023-05-22T09:54:14;99567.97;;;26.20;46.01
11041;BME280;5573;49.592;8.662;2023-05-22T09:56:43;99574.69;;;26.05;46.32
11041;BME280;5573;49.592;8.662;2023-05-22T09:59:19;99571.94;;;26.14;47.27
11041;BME280;5573;49.592;8.662;2023-05-22T10:01:48;99566.53;;;26.31;46.38
11041;BME280;5573;49.592;8.662;2023-05-22T10:04:17;99565.25;;;26.20;47.39
11041;BME280;5573;49.592;8.662;2023-05-22T10:06:48;99564.91;;;26.13;46.53
11041;BME280;5573;49.592;8.662;2023-05-22T10:09:19;99566.56;;;25.74;47.51
11041;BME280;5573;49.592;8.662;2023-05-22T10:11:51;99564.19;;;25.81;47.67
11041;BME280;5573;49.592;8.662;2023-05-22T10:14:22;99562.00;;;26.09;48.02
11041;BME280;5573;49.592;8.662;2023-05-22T10:16:52;99550.31;;;26.26;47.75
11041;BME280;5573;49.592;8.662;2023-05-22T10:19:22;99555.44;;;26.19;47.25
11041;BME280;5573;49.592;8.662;2023-05-22T10:21:55;99557.97;;;26.06;48.20
11041;BME280;5573;49.592;8.662;2023-05-22T10:24:23;99558.75;;;25.90;49.40
11041;BME280;5573;49.592;8.662;2023-05-22T10:26:52;99560.50;;;25.94;48.59
11041;BME280;5573;49.592;8.662;2023-05-22T10:29:27;99556.94;;;25.77;48.63
11041;BME280;5573;49.592;8.662;2023-05-22T10:32:06;99551.88;;;26.01;51.03
11041;BME280;5573;49.592;8.662;2023-05-22T10:34:50;99539.03;;;26.01;51.47
11041;BME280;5573;49.592;8.662;2023-05-22T10:37:31;99560.13;;;26.27;50.36
11041;BME280;5573;49.592;8.662;2023-05-22T10:40:06;99548.41;;;25.70;50.10
11041;BME280;5573;49.592;8.662;2023-05-22T10:42:36;99552.19;;;25.21;53.23
11041;BME280;5573;49.592;8.662;2023-05-22T10:45:09;99543.19;;;25.12;54.23
11041;BME280;5573;49.592;8.662;2023-05-22T10:47:38;99493.09;;;24.77;53.13
11041;BME280;5573;49.592;8.662;2023-05-22T10:50:08;99543.94;;;25.34;53.62
11041;BME280;5573;49.592;8.662;2023-05-22T10:52:37;99548.53;;;26.30;51.58
11041;BME280;5573;49.592;8.662;2023-05-22T10:55:06;99547.66;;;25.95;51.59
11041;BME280;5573;49.592;8.662;2023-05-22T10:57:36;99544.94;;;26.03;51.62
11041;BME280;5573;49.592;8.662;2023-05-22T11:00:10;99543.09;;;25.65;50.58
11041;BME280;5573;49.592;8.662;2023-05-22T11:02:41;99537.97;;;25.01;51.56
11041;BME280;5573;49.592;8.662;2023-05-22T11:05:34;99536.41;;;25.00;52.68
11041;BME280;5573;49.592;8.662;2023-05-22T11:08:36;99534.78;;;24.99;53.75
11041;BME280;5573;49.592;8.662;2023-05-22T11:11:13;99525.97;;;25.33;52.28
11041;BME280;5573;49.592;8.662;2023-05-22T11:13:41;99533.31;;;25.72;53.37
11041;BME280;5573;49.592;8.662;2023-05-22T11:16:11;99533.56;;;26.01;50.46
11041;BME280;5573;49.592;8.662;2023-05-22T11:18:39;99528.28;;;26.48;48.61
11041;BME280;5573;49.592;8.662;2023-05-22T11:21:10;99527.34;;;26.52;47.06
11041;BME280;5573;49.592;8.662;2023-05-22T11:23:39;99523.78;;;26.09;50.73
11041;BME280;5573;49.592;8.662;2023-05-22T11:26:18;99528.94;;;26.36;49.02
11041;BME280;5573;49.592;8.662;2023-05-22T11:28:48;99505.81;;;26.25;49.07
11041;BME280;5573;49.592;8.662;2023-05-22T11:31:19;99529.41;;;26.47;48.98
11041;BME280;5573;49.592;8.662;2023-05-22T11:33:48;99522.81;;;26.48;49.43
11041;BME280;5573;49.592;8.662;2023-05-22T11:36:16;99518.50;;;26.30;47.81
11041;BME280;5573;49.592;8.662;2023-05-22T11:38:45;99514.75;;;26.00;49.85
11041;BME280;5573;49.592;8.662;2023-05-22T11:41:14;99509.94;;;25.88;48.73
11041;BME280;5573;49.592;8.662;2023-05-22T11:43:42;99505.75;;;26.17;50.06
11041;BME280;5573;49.592;8.662;2023-05-22T11:46:11;99507.91;;;26.37;49.21
11041;BME280;5573;49.592;8.662;2023-05-22T11:48:41;99502.69;;;26.78;47.57
11041;BME280;5573;49.592;8.662;2023-05-22T11:51:09;99496.91;;;26.88;47.04
11041;BME280;5573;49.592;8.662;2023-05-22T11:53:37;99502.91;;;27.20;46.57
11041;BME280;5573;49.592;8.662;2023-05-22T11:56:08;99498.38;;;26.86;45.81
11041;BME280;5573;49.592;8.662;2023-05-22T11:58:35;99503.22;;;26.63;45.22
11041;BME280;5573;49.592;8.662;2023-05-22T12:01:04;99496.47;;;26.52;46.69
11041;BME280;5573;49.592;8.662;2023-05-22T12:03:33;99503.09;;;26.34;45.90
11041;BME280;5573;49.592;8.662;2023-05-22T12:06:03;99498.38;;;26.69;45.70
11041;BME280;5573;49.592;8.662;2023-05-22T12:08:31;99488.69;;;26.97;44.76
11041;BME280;5573;49.592;8.662;2023-05-22T12:10:59;99488.13;;;27.21;43.39
11041;BME280;5573;49.592;8.662;2023-05-22T12:13:31;99487.28;;;27.58;45.53
11041;BME280;5573;49.592;8.662;2023-05-22T12:15:59;99484.41;;;27.55;44.80
11041;BME280;5573;49.592;8.662;2023-05-22T12:18:34;99485.31;;;27.67;44.65
11041;BME280;5573;49.592;8.662;2023-05-22T12:21:06;99472.53;;;28.01;44.56
11041;BME280;5573;49.592;8.662;2023-05-22T12:23:34;99469.31;;;27.99;44.29
11041;BME280;5573;49.592;8.662;2023-05-22T12:26:07;99464.16;;;27.97;43.75
11041;BME280;5573;49.592;8.662;2023-05-22T12:28:37;99470.72;;;28.05;42.19
11041;BME280;5573;49.592;8.662;2023-05-22T12:31:05;99464.19;;;27.76;42.23
11041;BME280;5573;49.592;8.662;2023-05-22T12:33:33;99470.78;;;27.96;44.02
11041;BME280;5573;49.592;8.662;2023-05-22T12:36:07;99463.09;;;27.89;43.17
11041;BME280;5573;49.592;8.662;2023-05-22T12:38:36;99460.97;;;27.95;43.69
11041;BME280;5573;49.592;8.662;2023-05-22T12:41:05;99422.16;;;27.93;40.57
11041;BME280;5573;49.592;8.662;2023-05-22T12:43:33;99468.09;;;28.29;42.05
11041;BME280;5573;49.592;8.662;2023-05-22T12:46:01;99470.56;;;28.10;40.01
11041;BME280;5573;49.592;8.662;2023-05-22T12:48:28;99461.38;;;28.06;41.46
11041;BME280;5573;49.592;8.662;2023-05-22T12:50:56;99468.19;;;28.20;40.83
11041;BME280;5573;49.592;8.662;2023-05-22T12:53:26;99464.63;;;27.99;40.58
11041;BME280;5573;49.592;8.662;2023-05-22T12:55:53;99464.06;;;28.14;40.43
11041;BME280;5573;49.592;8.662;2023-05-22T12:58:21;99464.72;;;28.32;39.99
11041;BME280;5573;49.592;8.662;2023-05-22T13:00:49;99465.66;;;28.36;40.59
11041;BME280;5573;49.592;8.662;2023-05-22T13:03:17;99463.41;;;28.17;40.17
11041;BME280;5573;49.592;8.662;2023-05-22T13:05:45;99463.91;;;28.11;39.83
11041;BME280;5573;49.592;8.662;2023-05-22T13:08:13;99462.91;;;28.36;41.98
11041;BME280;5573;49.592;8.662;2023-05-22T13:10:42;99456.81;;;28.63;40.37
11041;BME280;5573;49.592;8.662;2023-05-22T13:13:10;99454.94;;;28.76;39.87
11041;BME280;5573;49.592;8.662;2023-05-22T13:15:37;99453.81;;;28.77;39.28
11041;BME280;5573;49.592;8.662;2023-05-22T13:18:06;99455.53;;;28.94;38.40
11041;BME280;5573;49.592;8.662;2023-05-22T13:20:34;99456.13;;;29.11;39.79
11041;BME280;5573;49.592;8.662;2023-05-22T13:23:03;99459.81;;;28.70;39.89
11041;BME280;5573;49.592;8.662;2023-05-22T13:25:31;99456.06;;;29.32;38.34
11041;BME280;5573;49.592;8.662;2023-05-22T13:28:00;99443.28;;;28.79;39.70